sensor_id;sensor_type;location;lat;lon;timestamp;temperature;humidity
55331;DHT22;58851;42.984;20.336;2023-06-24T00:01:53;486.70;128.00
55331;DHT22;58851;42.984;20.336;2023-06-24T00:04:18;486.60;128.00
55331;DHT22;58851;42.984;20.336;2023-06-24T00:06:46;486.60;128.00
55331;DHT22;58851;42.984;20.336;2023-06-24T00:09:12;486.50;128.00
55331;DHT22;58851;42.984;20.336;2023-06-24T00:11:37;486.40;128.00
55331;DHT22;58851;42.984;20.336;2023-06-24T00:14:04;486.40;128.00
55331;DHT22;58851;42.984;20.336;2023-06-24T00:16:32;486.40;128.00
55331;DHT22;58851;42.984;20.336;2023-06-24T00:18:58;461.70;128.00
55331;DHT22;58851;42.984;20.336;2023-06-24T00:21:26;461.70;128.00
55331;DHT22;58851;42.984;20.336;2023-06-24T00:23:59;461.70;128.00
55331;DHT22;58851;42.984;20.336;2023-06-24T00:26:29;461.70;128.00
55331;DHT22;58851;42.984;20.336;2023-06-24T00:28:55;461.60;128.00
55331;DHT22;58851;42.984;20.336;2023-06-24T00:31:21;461.50;128.00
55331;DHT22;58851;42.984;20.336;2023-06-24T00:33:47;461.40;128.00
55331;DHT22;58851;42.984;20.336;2023-06-24T00:36:15;461.40;128.00
55331;DHT22;58851;42.984;20.336;2023-06-24T00:38:40;461.40;128.00
55331;DHT22;58851;42.984;20.336;2023-06-24T00:41:07;461.40;128.00
55331;DHT22;58851;42.984;20.336;2023-06-24T00:43:33;461.40;128.00
55331;DHT22;58851;42.984;20.336;2023-06-24T00:45:59;461.30;128.00
55331;DHT22;58851;42.984;20.336;2023-06-24T00:48:25;461.30;128.00
55331;DHT22;58851;42.984;20.336;2023-06-24T00:50:51;461.30;128.00
55331;DHT22;58851;42.984;20.336;2023-06-24T00:53:18;461.30;128.00
55331;DHT22;58851;42.984;20.336;2023-06-24T00:55:47;461.30;128.00
55331;DHT22;58851;42.984;20.336;2023-06-24T00:58:14;461.20;128.00
55331;DHT22;58851;42.984;20.336;2023-06-24T01:00:43;461.10;128.00
55331;DHT22;58851;42.984;20.336;2023-06-24T01:03:11;461.10;128.00
55331;DHT22;58851;42.984;20.336;2023-06-24T01:05:42;461.10;128.00
55331;DHT22;58851;42.984;20.336;2023-06-24T01:08:08;461.00;128.00
55331;DHT22;58851;42.984;20.336;2023-06-24T01:10:35;461.00;128.00
55331;DHT22;58851;42.984;20.336;2023-06-24T01:13:01;460.90;128.00
55331;DHT22;58851;42.984;20.336;2023-06-24T01:15:27;436.10;128.00
55331;DHT22;58851;42.984;20.336;2023-06-24T01:18:10;460.80;128.00
55331;DHT22;58851;42.984;20.336;2023-06-24T01:20:50;460.80;128.00
55331;DHT22;58851;42.984;20.336;2023-06-24T01:23:38;436.10;128.00
55331;DHT22;58851;42.984;20.336;2023-06-24T01:29:52;436.10;128.00
55331;DHT22;58851;42.984;20.336;2023-06-24T01:32:41;436.10;128.00
55331;DHT22;58851;42.984;20.336;2023-06-24T01:35:19;436.00;128.00
55331;DHT22;58851;42.984;20.336;2023-06-24T01:37:48;436.00;128.00
55331;DHT22;58851;42.984;20.336;2023-06-24T01:40:39;435.90;128.00
55331;DHT22;58851;42.984;20.336;2023-06-24T01:43:08;435.90;128.00
55331;DHT22;58851;42.984;20.336;2023-06-24T01:45:41;435.70;128.00
55331;DHT22;58851;42.984;20.336;2023-06-24T01:48:27;435.70;128.00
55331;DHT22;58851;42.984;20.336;2023-06-24T01:50:58;435.70;128.00
55331;DHT22;58851;42.984;20.336;2023-06-24T01:53:27;435.70;128.00
55331;DHT22;58851;42.984;20.336;2023-06-24T01:55:55;435.70;128.00
55331;DHT22;58851;42.984;20.336;2023-06-24T01:58:23;435.70;128.00
55331;DHT22;58851;42.984;20.336;2023-06-24T02:00:50;435.70;128.00
55331;DHT22;58851;42.984;20.336;2023-06-24T02:03:17;435.70;128.00
55331;DHT22;58851;42.984;20.336;2023-06-24T02:05:44;435.70;128.00
55331;DHT22;58851;42.984;20.336;2023-06-24T02:08:12;435.70;128.00
55331;DHT22;58851;42.984;20.336;2023-06-24T02:10:40;435.70;128.00
55331;DHT22;58851;42.984;20.336;2023-06-24T02:13:07;435.60;128.00
55331;DHT22;58851;42.984;20.336;2023-06-24T02:15:34;435.50;128.00
55331;DHT22;58851;42.984;20.336;2023-06-24T02:18:02;435.30;128.00
55331;DHT22;58851;42.984;20.336;2023-06-24T02:20:29;435.30;128.00
55331;DHT22;58851;42.984;20.336;2023-06-24T02:22:57;435.40;128.00
55331;DHT22;58851;42.984;20.336;2023-06-24T02:25:24;435.40;128.00
55331;DHT22;58851;42.984;20.336;2023-06-24T02:27:53;435.40;128.00
55331;DHT22;58851;42.984;20.336;2023-06-24T02:30:20;435.40;128.00
55331;DHT22;58851;42.984;20.336;2023-06-24T02:32:47;435.40;128.00
55331;DHT22;58851;42.984;20.336;2023-06-24T02:35:13;435.40;128.00
55331;DHT22;58851;42.984;20.336;2023-06-24T02:37:39;435.40;128.00
55331;DHT22;58851;42.984;20.336;2023-06-24T02:40:07;435.20;128.00
55331;DHT22;58851;42.984;20.336;2023-06-24T02:42:33;410.50;128.00
55331;DHT22;58851;42.984;20.336;2023-06-24T02:44:59;410.20;128.00
55331;DHT22;58851;42.984;20.336;2023-06-24T02:47:26;410.30;128.00
55331;DHT22;58851;42.984;20.336;2023-06-24T02:49:52;410.40;128.00
55331;DHT22;58851;42.984;20.336;2023-06-24T02:52:19;410.40;128.00
55331;DHT22;58851;42.984;20.336;2023-06-24T02:54:46;410.40;128.00
55331;DHT22;58851;42.984;20.336;2023-06-24T02:57:12;410.50;128.00
55331;DHT22;58851;42.984;20.336;2023-06-24T02:59:40;410.50;128.00
55331;DHT22;58851;42.984;20.336;2023-06-24T03:02:06;410.50;128.00
55331;DHT22;58851;42.984;20.336;2023-06-24T03:04:33;410.50;128.00
55331;DHT22;58851;42.984;20.336;2023-06-24T03:07:00;410.50;128.00
55331;DHT22;58851;42.984;20.336;2023-06-24T03:09:28;410.40;128.00
55331;DHT22;58851;42.984;20.336;2023-06-24T03:11:53;410.40;128.00
55331;DHT22;58851;42.984;20.336;2023-06-24T03:14:19;410.40;128.00
55331;DHT22;58851;42.984;20.336;2023-06-24T03:16:45;410.40;128.00
55331;DHT22;58851;42.984;20.336;2023-06-24T03:19:11;410.50;128.00
55331;DHT22;58851;42.984;20.336;2023-06-24T03:21:36;410.50;128.00
55331;DHT22;58851;42.984;20.336;2023-06-24T03:24:02;410.40;128.00
55331;DHT22;58851;42.984;20.336;2023-06-24T03:26:32;410.50;128.00
55331;DHT22;58851;42.984;20.336;2023-06-24T03:28:58;410.50;128.00
55331;DHT22;58851;42.984;20.336;2023-06-24T03:31:24;410.40;128.00
55331;DHT22;58851;42.984;20.336;2023-06-24T03:33:50;410.30;128.00
55331;DHT22;58851;42.984;20.336;2023-06-24T03:36:16;410.30;128.00
55331;DHT22;58851;42.984;20.336;2023-06-24T03:38:42;410.20;128.00
55331;DHT22;58851;42.984;20.336;2023-06-24T03:41:07;410.20;128.00
55331;DHT22;58851;42.984;20.336;2023-06-24T03:43:33;410.20;128.00
55331;DHT22;58851;42.984;20.336;2023-06-24T03:45:59;410.20;128.00
55331;DHT22;58851;42.984;20.336;2023-06-24T03:48:25;410.10;128.00
55331;DHT22;58851;42.984;20.336;2023-06-24T03:50:51;410.00;128.00
55331;DHT22;58851;42.984;20.336;2023-06-24T03:53:17;409.90;128.00
55331;DHT22;58851;42.984;20.336;2023-06-24T03:55:43;409.90;128.00
55331;DHT22;58851;42.984;20.336;2023-06-24T03:58:09;410.00;128.00
55331;DHT22;58851;42.984;20.336;2023-06-24T04:00:34;410.10;128.00
55331;DHT22;58851;42.984;20.336;2023-06-24T04:03:04;410.30;128.00
55331;DHT22;58851;42.984;20.336;2023-06-24T04:05:30;410.30;128.00
55331;DHT22;58851;42.984;20.336;2023-06-24T04:07:56;410.40;128.00
55331;DHT22;58851;42.984;20.336;2023-06-24T04:10:22;435.20;128.00
55331;DHT22;58851;42.984;20.336;2023-06-24T04:12:47;435.20;128.00
55331;DHT22;58851;42.984;20.336;2023-06-24T04:15:13;435.30;128.00
55331;DHT22;58851;42.984;20.336;2023-06-24T04:17:39;435.40;128.00
55331;DHT22;58851;42.984;20.336;2023-06-24T04:20:05;435.40;128.00
55331;DHT22;58851;42.984;20.336;2023-06-24T04:22:36;435.40;128.00
55331;DHT22;58851;42.984;20.336;2023-06-24T04:25:02;435.50;128.00
55331;DHT22;58851;42.984;20.336;2023-06-24T04:27:27;435.50;128.00
55331;DHT22;58851;42.984;20.336;2023-06-24T04:29:53;435.60;128.00
55331;DHT22;58851;42.984;20.336;2023-06-24T04:32:19;435.70;128.00
55331;DHT22;58851;42.984;20.336;2023-06-24T04:34:44;435.70;128.00
55331;DHT22;58851;42.984;20.336;2023-06-24T04:37:10;435.70;128.00
55331;DHT22;58851;42.984;20.336;2023-06-24T04:39:36;435.70;128.00
55331;DHT22;58851;42.984;20.336;2023-06-24T04:42:02;435.80;128.00
55331;DHT22;58851;42.984;20.336;2023-06-24T04:44:28;435.90;128.00
55331;DHT22;58851;42.984;20.336;2023-06-24T04:46:53;435.90;128.00
55331;DHT22;58851;42.984;20.336;2023-06-24T04:49:19;435.90;128.00
55331;DHT22;58851;42.984;20.336;2023-06-24T04:51:45;436.00;128.00
55331;DHT22;58851;42.984;20.336;2023-06-24T04:54:11;435.90;128.00
55331;DHT22;58851;42.984;20.336;2023-06-24T04:56:38;435.90;128.00
55331;DHT22;58851;42.984;20.336;2023-06-24T04:59:04;436.10;128.00
55331;DHT22;58851;42.984;20.336;2023-06-24T05:01:29;460.80;128.00
55331;DHT22;58851;42.984;20.336;2023-06-24T05:03:55;461.00;128.00
55331;DHT22;58851;42.984;20.336;2023-06-24T05:06:21;461.10;128.00
55331;DHT22;58851;42.984;20.336;2023-06-24T05:08:47;461.10;128.00
55331;DHT22;58851;42.984;20.336;2023-06-24T05:11:13;461.30;128.00
55331;DHT22;58851;42.984;20.336;2023-06-24T05:13:39;461.40;128.00
55331;DHT22;58851;42.984;20.336;2023-06-24T05:16:05;461.50;128.00
55331;DHT22;58851;42.984;20.336;2023-06-24T05:18:31;461.50;128.00
55331;DHT22;58851;42.984;20.336;2023-06-24T05:20:57;461.50;128.00
55331;DHT22;58851;42.984;20.336;2023-06-24T05:23:23;461.50;128.00
55331;DHT22;58851;42.984;20.336;2023-06-24T05:25:48;461.50;128.00
55331;DHT22;58851;42.984;20.336;2023-06-24T05:28:14;461.50;128.00
55331;DHT22;58851;42.984;20.336;2023-06-24T05:30:41;461.60;128.00
55331;DHT22;58851;42.984;20.336;2023-06-24T05:33:07;461.70;128.00
55331;DHT22;58851;42.984;20.336;2023-06-24T05:35:33;486.40;128.00
55331;DHT22;58851;42.984;20.336;2023-06-24T05:37:59;486.40;128.00
55331;DHT22;58851;42.984;20.336;2023-06-24T05:40:24;486.40;128.00
55331;DHT22;58851;42.984;20.336;2023-06-24T05:42:50;486.40;128.00
55331;DHT22;58851;42.984;20.336;2023-06-24T05:45:17;461.70;128.00
55331;DHT22;58851;42.984;20.336;2023-06-24T05:47:43;461.60;128.00
55331;DHT22;58851;42.984;20.336;2023-06-24T05:50:09;461.70;128.00
55331;DHT22;58851;42.984;20.336;2023-06-24T05:52:35;486.40;128.00
55331;DHT22;58851;42.984;20.336;2023-06-24T05:55:01;486.50;128.00
55331;DHT22;58851;42.984;20.336;2023-06-24T05:57:27;486.60;128.00
55331;DHT22;58851;42.984;20.336;2023-06-24T05:59:53;486.60;128.00
55331;DHT22;58851;42.984;20.336;2023-06-24T06:02:18;486.70;128.00
55331;DHT22;58851;42.984;20.336;2023-06-24T06:04:44;486.70;128.00
55331;DHT22;58851;42.984;20.336;2023-06-24T06:07:10;486.70;128.00
55331;DHT22;58851;42.984;20.336;2023-06-24T06:09:36;486.90;128.00
55331;DHT22;58851;42.984;20.336;2023-06-24T06:12:02;486.90;128.00
55331;DHT22;58851;42.984;20.336;2023-06-24T06:14:28;487.10;128.00
55331;DHT22;58851;42.984;20.336;2023-06-24T06:16:54;487.30;128.00
55331;DHT22;58851;42.984;20.336;2023-06-24T06:19:19;512.00;128.00
55331;DHT22;58851;42.984;20.336;2023-06-24T06:21:45;512.20;128.00
55331;DHT22;58851;42.984;20.336;2023-06-24T06:24:11;512.40;128.00
55331;DHT22;58851;42.984;20.336;2023-06-24T06:26:42;512.60;128.00
55331;DHT22;58851;42.984;20.336;2023-06-24T06:29:08;512.80;128.00
55331;DHT22;58851;42.984;20.336;2023-06-24T06:31:35;512.90;128.00
55331;DHT22;58851;42.984;20.336;2023-06-24T06:34:01;512.80;128.00
55331;DHT22;58851;42.984;20.336;2023-06-24T06:36:27;537.70;128.00
55331;DHT22;58851;42.984;20.336;2023-06-24T06:38:53;537.60;128.00
55331;DHT22;58851;42.984;20.336;2023-06-24T06:41:19;537.60;128.00
55331;DHT22;58851;42.984;20.336;2023-06-24T06:43:53;538.00;128.00
55331;DHT22;58851;42.984;20.336;2023-06-24T06:46:20;538.40;128.00
55331;DHT22;58851;42.984;20.336;2023-06-24T06:48:45;563.50;128.00
55331;DHT22;58851;42.984;20.336;2023-06-24T06:51:12;563.90;128.00
55331;DHT22;58851;42.984;20.336;2023-06-24T06:53:38;588.90;128.00
55331;DHT22;58851;42.984;20.336;2023-06-24T06:56:04;589.20;128.00
55331;DHT22;58851;42.984;20.336;2023-06-24T06:58:30;589.50;128.00
55331;DHT22;58851;42.984;20.336;2023-06-24T07:00:56;589.70;128.00
55331;DHT22;58851;42.984;20.336;2023-06-24T07:03:26;614.50;128.00
55331;DHT22;58851;42.984;20.336;2023-06-24T07:05:53;614.80;128.00
55331;DHT22;58851;42.984;20.336;2023-06-24T07:08:19;615.20;128.00
55331;DHT22;58851;42.984;20.336;2023-06-24T07:10:45;615.10;128.00
55331;DHT22;58851;42.984;20.336;2023-06-24T07:13:11;615.30;128.00
55331;DHT22;58851;42.984;20.336;2023-06-24T07:15:36;640.00;128.00
55331;DHT22;58851;42.984;20.336;2023-06-24T07:18:02;640.30;128.00
55331;DHT22;58851;42.984;20.336;2023-06-24T07:20:28;640.00;128.00
55331;DHT22;58851;42.984;20.336;2023-06-24T07:22:54;615.10;128.00
55331;DHT22;58851;42.984;20.336;2023-06-24T07:25:19;615.10;128.00
55331;DHT22;58851;42.984;20.336;2023-06-24T07:27:46;615.00;128.00
55331;DHT22;58851;42.984;20.336;2023-06-24T07:30:11;614.80;128.00
55331;DHT22;58851;42.984;20.336;2023-06-24T07:32:37;614.70;128.00
55331;DHT22;58851;42.984;20.336;2023-06-24T07:35:04;614.40;128.00
55331;DHT22;58851;42.984;20.336;2023-06-24T07:37:29;589.50;128.00
55331;DHT22;58851;42.984;20.336;2023-06-24T07:39:55;589.40;128.00
55331;DHT22;58851;42.984;20.336;2023-06-24T07:42:21;589.30;128.00
55331;DHT22;58851;42.984;20.336;2023-06-24T07:44:48;589.20;128.00
55331;DHT22;58851;42.984;20.336;2023-06-24T07:47:14;589.20;128.00
55331;DHT22;58851;42.984;20.336;2023-06-24T07:49:40;588.90;128.00
55331;DHT22;58851;42.984;20.336;2023-06-24T07:52:06;588.80;128.00
55331;DHT22;58851;42.984;20.336;2023-06-24T07:54:33;564.00;128.00
55331;DHT22;58851;42.984;20.336;2023-06-24T07:56:59;563.90;128.00
55331;DHT22;58851;42.984;20.336;2023-06-24T07:59:25;563.90;128.00
55331;DHT22;58851;42.984;20.336;2023-06-24T08:01:51;563.90;128.00
55331;DHT22;58851;42.984;20.336;2023-06-24T08:04:16;563.90;128.00
55331;DHT22;58851;42.984;20.336;2023-06-24T08:06:42;564.00;128.00
55331;DHT22;58851;42.984;20.336;2023-06-24T08:09:08;564.00;128.00
55331;DHT22;58851;42.984;20.336;2023-06-24T08:11:34;563.90;128.00
55331;DHT22;58851;42.984;20.336;2023-06-24T08:13:59;563.90;128.00
55331;DHT22;58851;42.984;20.336;2023-06-24T08:16:27;563.90;128.00
55331;DHT22;58851;42.984;20.336;2023-06-24T08:18:53;563.70;128.00
55331;DHT22;58851;42.984;20.336;2023-06-24T08:21:19;563.70;128.00
55331;DHT22;58851;42.984;20.336;2023-06-24T08:23:46;563.70;128.00
55331;DHT22;58851;42.984;20.336;2023-06-24T08:26:12;563.60;128.00
55331;DHT22;58851;42.984;20.336;2023-06-24T08:28:37;563.60;128.00
55331;DHT22;58851;42.984;20.336;2023-06-24T08:31:03;563.60;128.00
55331;DHT22;58851;42.984;20.336;2023-06-24T08:33:29;563.40;128.00
55331;DHT22;58851;42.984;20.336;2023-06-24T08:35:55;563.30;128.00
55331;DHT22;58851;42.984;20.336;2023-06-24T08:38:20;563.20;128.00
55331;DHT22;58851;42.984;20.336;2023-06-24T08:40:46;538.30;128.00
55331;DHT22;58851;42.984;20.336;2023-06-24T08:43:14;538.10;128.00
55331;DHT22;58851;42.984;20.336;2023-06-24T08:45:40;538.10;128.00
55331;DHT22;58851;42.984;20.336;2023-06-24T08:48:06;538.00;128.00
55331;DHT22;58851;42.984;20.336;2023-06-24T08:50:35;538.10;128.00
55331;DHT22;58851;42.984;20.336;2023-06-24T08:53:05;538.10;128.00
55331;DHT22;58851;42.984;20.336;2023-06-24T08:55:40;538.10;128.00
55331;DHT22;58851;42.984;20.336;2023-06-24T08:58:07;538.10;128.00
55331;DHT22;58851;42.984;20.336;2023-06-24T09:00:34;538.10;128.00
55331;DHT22;58851;42.984;20.336;2023-06-24T09:03:00;538.10;128.00
55331;DHT22;58851;42.984;20.336;2023-06-24T09:05:26;537.80;128.00
55331;DHT22;58851;42.984;20.336;2023-06-24T09:07:52;537.60;128.00
55331;DHT22;58851;42.984;20.336;2023-06-24T09:10:35;537.60;128.00
55331;DHT22;58851;42.984;20.336;2023-06-24T09:13:02;537.70;128.00
55331;DHT22;58851;42.984;20.336;2023-06-24T09:15:35;537.90;128.00
55331;DHT22;58851;42.984;20.336;2023-06-24T09:18:03;537.90;128.00
55331;DHT22;58851;42.984;20.336;2023-06-24T09:20:30;538.00;128.00
55331;DHT22;58851;42.984;20.336;2023-06-24T09:23:03;538.10;128.00
55331;DHT22;58851;42.984;20.336;2023-06-24T09:25:30;538.30;128.00
55331;DHT22;58851;42.984;20.336;2023-06-24T09:28:01;538.10;128.00
55331;DHT22;58851;42.984;20.336;2023-06-24T09:30:27;538.10;128.00
55331;DHT22;58851;42.984;20.336;2023-06-24T09:32:54;538.50;128.00
55331;DHT22;58851;42.984;20.336;2023-06-24T09:35:22;563.50;128.00
55331;DHT22;58851;42.984;20.336;2023-06-24T09:37:52;563.80;128.00
55331;DHT22;58851;42.984;20.336;2023-06-24T09:40:19;564.10;128.00
55331;DHT22;58851;42.984;20.336;2023-06-24T09:42:55;589.20;128.00
55331;DHT22;58851;42.984;20.336;2023-06-24T09:45:29;589.60;128.00
55331;DHT22;58851;42.984;20.336;2023-06-24T09:47:56;614.50;128.00
55331;DHT22;58851;42.984;20.336;2023-06-24T09:50:23;615.00;128.00
55331;DHT22;58851;42.984;20.336;2023-06-24T09:52:50;615.20;128.00
55331;DHT22;58851;42.984;20.336;2023-06-24T09:55:17;615.30;128.00
55331;DHT22;58851;42.984;20.336;2023-06-24T09:57:49;640.20;128.00
55331;DHT22;58851;42.984;20.336;2023-06-24T10:00:18;640.40;128.00
55331;DHT22;58851;42.984;20.336;2023-06-24T10:02:45;640.60;128.00
55331;DHT22;58851;42.984;20.336;2023-06-24T10:05:13;640.30;128.00
55331;DHT22;58851;42.984;20.336;2023-06-24T10:07:40;640.10;128.00
55331;DHT22;58851;42.984;20.336;2023-06-24T10:10:06;640.00;128.00
55331;DHT22;58851;42.984;20.336;2023-06-24T10:12:37;640.00;128.00
55331;DHT22;58851;42.984;20.336;2023-06-24T10:15:03;615.20;128.00
55331;DHT22;58851;42.984;20.336;2023-06-24T10:17:30;615.30;128.00
55331;DHT22;58851;42.984;20.336;2023-06-24T10:19:56;640.00;128.00
55331;DHT22;58851;42.984;20.336;2023-06-24T10:22:25;640.00;128.00
55331;DHT22;58851;42.984;20.336;2023-06-24T10:24:52;640.00;128.00
55331;DHT22;58851;42.984;20.336;2023-06-24T10:27:22;640.30;128.00
55331;DHT22;58851;42.984;20.336;2023-06-24T10:29:52;640.70;128.00
55331;DHT22;58851;42.984;20.336;2023-06-24T10:32:19;640.70;128.00
55331;DHT22;58851;42.984;20.336;2023-06-24T10:34:47;665.70;153.60
55331;DHT22;58851;42.984;20.336;2023-06-24T10:37:24;665.60;153.60
55331;DHT22;58851;42.984;20.336;2023-06-24T10:40:00;666.20;153.60
55331;DHT22;58851;42.984;20.336;2023-06-24T10:42:40;691.20;153.60
55331;DHT22;58851;42.984;20.336;2023-06-24T10:47:36;691.20;153.60
55331;DHT22;58851;42.984;20.336;2023-06-24T10:50:03;691.20;153.60
55331;DHT22;58851;42.984;20.336;2023-06-24T10:52:29;691.30;153.60
55331;DHT22;58851;42.984;20.336;2023-06-24T10:54:58;691.60;153.60
55331;DHT22;58851;42.984;20.336;2023-06-24T10:57:26;691.70;153.60
55331;DHT22;58851;42.984;20.336;2023-06-24T10:59:54;692.00;153.60
55331;DHT22;58851;42.984;20.336;2023-06-24T11:02:25;692.00;153.60
55331;DHT22;58851;42.984;20.336;2023-06-24T11:04:58;692.10;153.60
55331;DHT22;58851;42.984;20.336;2023-06-24T11:07:26;692.10;358.40
55331;DHT22;58851;42.984;20.336;2023-06-24T11:09:56;692.10;179.20
55331;DHT22;58851;42.984;20.336;2023-06-24T11:12:27;692.10;256.00
55331;DHT22;58851;42.984;20.336;2023-06-24T11:15:02;716.80;281.60
55331;DHT22;58851;42.984;20.336;2023-06-24T11:17:28;717.00;768.00
55331;DHT22;58851;42.984;20.336;2023-06-24T11:19:54;717.30;460.80
55331;DHT22;58851;42.984;20.336;2023-06-24T11:22:21;717.40;563.20
55331;DHT22;58851;42.984;20.336;2023-06-24T11:24:47;742.40;281.60
55331;DHT22;58851;42.984;20.336;2023-06-24T11:27:13;742.40;204.80
55331;DHT22;58851;42.984;20.336;2023-06-24T11:29:39;742.50;204.80
55331;DHT22;58851;42.984;20.336;2023-06-24T11:32:07;742.70;204.80
55331;DHT22;58851;42.984;20.336;2023-06-24T11:34:34;743.00;204.80
55331;DHT22;58851;42.984;20.336;2023-06-24T11:37:17;743.30;204.80
55331;DHT22;58851;42.984;20.336;2023-06-24T11:39:43;768.00;204.80
55331;DHT22;58851;42.984;20.336;2023-06-24T11:42:10;768.10;204.80
55331;DHT22;58851;42.984;20.336;2023-06-24T11:44:41;768.20;204.80
55331;DHT22;58851;42.984;20.336;2023-06-24T11:47:10;768.00;204.80
55331;DHT22;58851;42.984;20.336;2023-06-24T11:50:03;768.30;204.80
55331;DHT22;58851;42.984;20.336;2023-06-24T11:52:48;768.30;204.80
55331;DHT22;58851;42.984;20.336;2023-06-24T11:55:22;768.30;204.80
55331;DHT22;58851;42.984;20.336;2023-06-24T11:58:03;768.40;204.80
55331;DHT22;58851;42.984;20.336;2023-06-24T12:00:35;768.40;204.80
55331;DHT22;58851;42.984;20.336;2023-06-24T12:03:11;768.60;204.80
55331;DHT22;58851;42.984;20.336;2023-06-24T12:05:38;768.50;204.80
55331;DHT22;58851;42.984;20.336;2023-06-24T12:08:11;768.70;204.80
55331;DHT22;58851;42.984;20.336;2023-06-24T12:10:39;768.90;204.80
55331;DHT22;58851;42.984;20.336;2023-06-24T12:13:06;793.60;230.40
55331;DHT22;58851;42.984;20.336;2023-06-24T12:15:32;793.70;230.40
55331;DHT22;58851;42.984;20.336;2023-06-24T12:17:58;794.10;230.40
55331;DHT22;58851;42.984;20.336;2023-06-24T12:20:25;794.20;230.40
55331;DHT22;58851;42.984;20.336;2023-06-24T12:22:51;794.50;230.40
55331;DHT22;58851;42.984;20.336;2023-06-24T12:25:18;819.40;230.40
55331;DHT22;58851;42.984;20.336;2023-06-24T12:27:44;819.40;230.40
55331;DHT22;58851;42.984;20.336;2023-06-24T12:30:11;819.70;230.40
55331;DHT22;58851;42.984;20.336;2023-06-24T12:32:37;819.70;230.40
55331;DHT22;58851;42.984;20.336;2023-06-24T12:35:03;819.90;230.40
55331;DHT22;58851;42.984;20.336;2023-06-24T12:37:31;820.10;230.40
55331;DHT22;58851;42.984;20.336;2023-06-24T12:40:01;844.90;256.00
55331;DHT22;58851;42.984;20.336;2023-06-24T12:42:27;844.90;256.00
55331;DHT22;58851;42.984;20.336;2023-06-24T12:44:54;844.90;256.00
55331;DHT22;58851;42.984;20.336;2023-06-24T12:47:21;844.90;256.00
55331;DHT22;58851;42.984;20.336;2023-06-24T12:49:47;845.00;256.00
55331;DHT22;58851;42.984;20.336;2023-06-24T12:52:13;845.00;256.00
55331;DHT22;58851;42.984;20.336;2023-06-24T12:54:40;845.00;256.00
55331;DHT22;58851;42.984;20.336;2023-06-24T12:57:06;845.00;256.00
55331;DHT22;58851;42.984;20.336;2023-06-24T12:59:32;844.80;256.00
55331;DHT22;58851;42.984;20.336;2023-06-24T13:01:58;845.10;256.00
55331;DHT22;58851;42.984;20.336;2023-06-24T13:04:24;845.10;256.00
55331;DHT22;58851;42.984;20.336;2023-06-24T13:06:53;845.40;256.00
55331;DHT22;58851;42.984;20.336;2023-06-24T13:09:19;845.50;256.00
55331;DHT22;58851;42.984;20.336;2023-06-24T13:11:45;845.70;256.00
55331;DHT22;58851;42.984;20.336;2023-06-24T13:14:12;870.40;256.00
55331;DHT22;58851;42.984;20.336;2023-06-24T13:16:38;870.80;256.00
55331;DHT22;58851;42.984;20.336;2023-06-24T13:19:04;870.90;256.00
55331;DHT22;58851;42.984;20.336;2023-06-24T13:21:30;871.10;332.80
55331;DHT22;58851;42.984;20.336;2023-06-24T13:23:56;871.10;256.00
55331;DHT22;58851;42.984;20.336;2023-06-24T13:26:22;870.90;256.00
55331;DHT22;58851;42.984;20.336;2023-06-24T13:28:48;871.10;409.60
55331;DHT22;58851;42.984;20.336;2023-06-24T13:31:15;871.10;512.00
55331;DHT22;58851;42.984;20.336;2023-06-24T13:33:40;871.10;588.80
55331;DHT22;58851;42.984;20.336;2023-06-24T13:36:07;870.70;512.00
55331;DHT22;58851;42.984;20.336;2023-06-24T13:38:33;870.70;256.00
55331;DHT22;58851;42.984;20.336;2023-06-24T13:40:59;871.00;256.00
55331;DHT22;58851;42.984;20.336;2023-06-24T13:43:25;870.50;870.40
55331;DHT22;58851;42.984;20.336;2023-06-24T13:45:51;845.50;716.80
55331;DHT22;58851;42.984;20.336;2023-06-24T13:48:17;845.50;256.00
55331;DHT22;58851;42.984;20.336;2023-06-24T13:50:43;845.10;716.80
55331;DHT22;58851;42.984;20.336;2023-06-24T13:53:09;845.10;716.80
55331;DHT22;58851;42.984;20.336;2023-06-24T13:55:45;819.90;281.60
55331;DHT22;58851;42.984;20.336;2023-06-24T13:58:11;820.00;230.40
55331;DHT22;58851;42.984;20.336;2023-06-24T14:00:37;819.60;230.40
55331;DHT22;58851;42.984;20.336;2023-06-24T14:03:04;819.90;230.40
55331;DHT22;58851;42.984;20.336;2023-06-24T14:05:30;819.90;230.40
55331;DHT22;58851;42.984;20.336;2023-06-24T14:07:56;819.90;230.40
55331;DHT22;58851;42.984;20.336;2023-06-24T14:10:21;819.70;230.40
55331;DHT22;58851;42.984;20.336;2023-06-24T14:12:47;819.90;230.40
55331;DHT22;58851;42.984;20.336;2023-06-24T14:15:13;819.90;230.40
55331;DHT22;58851;42.984;20.336;2023-06-24T14:17:39;819.80;230.40
55331;DHT22;58851;42.984;20.336;2023-06-24T14:20:05;820.10;230.40
55331;DHT22;58851;42.984;20.336;2023-06-24T14:22:31;820.10;230.40
55331;DHT22;58851;42.984;20.336;2023-06-24T14:24:57;845.20;768.00
55331;DHT22;58851;42.984;20.336;2023-06-24T14:27:23;845.70;256.00
55331;DHT22;58851;42.984;20.336;2023-06-24T14:29:49;870.70;256.00
55331;DHT22;58851;42.984;20.336;2023-06-24T14:32:14;871.30;256.00
55331;DHT22;58851;42.984;20.336;2023-06-24T14:34:40;896.50;256.00
55331;DHT22;58851;42.984;20.336;2023-06-24T14:37:06;921.60;281.60
55331;DHT22;58851;42.984;20.336;2023-06-24T14:39:32;896.70;256.00
55331;DHT22;58851;42.984;20.336;2023-06-24T14:41:58;896.50;256.00
55331;DHT22;58851;42.984;20.336;2023-06-24T14:44:23;896.80;256.00
55331;DHT22;58851;42.984;20.336;2023-06-24T14:46:49;896.50;256.00
55331;DHT22;58851;42.984;20.336;2023-06-24T14:49:15;921.60;281.60
55331;DHT22;58851;42.984;20.336;2023-06-24T14:51:42;921.60;281.60
55331;DHT22;58851;42.984;20.336;2023-06-24T14:54:08;921.90;281.60
55331;DHT22;58851;42.984;20.336;2023-06-24T14:56:34;922.20;281.60